Belvidere, Nebraska
Current Conditions -  °F | °C
As of 3:15 PM on Saturday 22 Nov 2014 (Local Time) from KHJH Reporting Station
Clear Clear  
Wind Chill: 61°   Ceiling: Unl
Heat Index: 61°   Visibility: 10mi
Dew Point: 42°   Wind: 15mph
Humidity: 49%   Direction: 180°S
Pressure: 29.65"   Gusts: 20mph
Location:  40.25°N, 97.56°W
Report Text: KHJH 222115Z AUTO 18013G17KT 10SM CLR 16/05 A2965 RMK AO2 T01630054
Loading
Personal Weather Stations






























Interactive Weather Map New forecast layout! Learn more

10-Day Weather Forecast

Advertisements
Track Severe Weather on mobile